sensor_id;sensor_type;location;lat;lon;timestamp;P1;durP1;ratioP1;P2;durP2;ratioP2
59127;SDS011;44912;52.754;5.994;2023-07-20T00:01:07;4.95;;;2.97;;
59127;SDS011;44912;52.754;5.994;2023-07-20T00:03:33;5.88;;;3.25;;
59127;SDS011;44912;52.754;5.994;2023-07-20T00:05:58;5.00;;;3.00;;
59127;SDS011;44912;52.754;5.994;2023-07-20T00:08:24;4.63;;;2.95;;
59127;SDS011;44912;52.754;5.994;2023-07-20T00:10:49;5.63;;;3.20;;
59127;SDS011;44912;52.754;5.994;2023-07-20T00:13:15;5.95;;;3.17;;
59127;SDS011;44912;52.754;5.994;2023-07-20T00:15:43;5.20;;;3.25;;
59127;SDS011;44912;52.754;5.994;2023-07-20T00:18:09;6.00;;;3.33;;
59127;SDS011;44912;52.754;5.994;2023-07-20T00:20:34;6.00;;;3.40;;
59127;SDS011;44912;52.754;5.994;2023-07-20T00:23:00;6.43;;;4.07;;
59127;SDS011;44912;52.754;5.994;2023-07-20T00:25:26;6.88;;;4.10;;
59127;SDS011;44912;52.754;5.994;2023-07-20T00:27:51;6.50;;;3.95;;
59127;SDS011;44912;52.754;5.994;2023-07-20T00:30:18;6.25;;;4.05;;
59127;SDS011;44912;52.754;5.994;2023-07-20T00:32:43;6.35;;;3.97;;
59127;SDS011;44912;52.754;5.994;2023-07-20T00:35:09;6.00;;;4.10;;
59127;SDS011;44912;52.754;5.994;2023-07-20T00:37:36;7.70;;;4.22;;
59127;SDS011;44912;52.754;5.994;2023-07-20T00:40:02;8.82;;;3.80;;
59127;SDS011;44912;52.754;5.994;2023-07-20T00:42:29;6.20;;;4.20;;
59127;SDS011;44912;52.754;5.994;2023-07-20T00:44:55;5.25;;;3.65;;
59127;SDS011;44912;52.754;5.994;2023-07-20T00:47:20;6.00;;;4.00;;
59127;SDS011;44912;52.754;5.994;2023-07-20T00:49:46;7.93;;;4.38;;
59127;SDS011;44912;52.754;5.994;2023-07-20T00:52:12;6.72;;;4.18;;
59127;SDS011;44912;52.754;5.994;2023-07-20T00:54:39;6.95;;;3.90;;
59127;SDS011;44912;52.754;5.994;2023-07-20T00:57:06;7.38;;;4.07;;
59127;SDS011;44912;52.754;5.994;2023-07-20T00:59:33;8.30;;;4.82;;
59127;SDS011;44912;52.754;5.994;2023-07-20T01:01:59;10.60;;;5.25;;
59127;SDS011;44912;52.754;5.994;2023-07-20T01:04:24;6.25;;;4.53;;
59127;SDS011;44912;52.754;5.994;2023-07-20T01:07:03;8.65;;;4.88;;
59127;SDS011;44912;52.754;5.994;2023-07-20T01:12:07;7.30;;;4.97;;
59127;SDS011;44912;52.754;5.994;2023-07-20T01:14:38;10.30;;;5.93;;
59127;SDS011;44912;52.754;5.994;2023-07-20T01:17:04;9.43;;;5.80;;
59127;SDS011;44912;52.754;5.994;2023-07-20T01:19:30;86.78;;;9.60;;
59127;SDS011;44912;52.754;5.994;2023-07-20T01:30:25;333.42;;;13.60;;
59127;SDS011;44912;52.754;5.994;2023-07-20T01:32:55;280.58;;;12.32;;
59127;SDS011;44912;52.754;5.994;2023-07-20T01:35:23;109.45;;;7.35;;
59127;SDS011;44912;52.754;5.994;2023-07-20T01:37:53;64.78;;;5.80;;
59127;SDS011;44912;52.754;5.994;2023-07-20T01:40:19;20.38;;;5.18;;
59127;SDS011;44912;52.754;5.994;2023-07-20T01:42:47;94.22;;;7.03;;
59127;SDS011;44912;52.754;5.994;2023-07-20T01:45:13;61.80;;;6.25;;
59127;SDS011;44912;52.754;5.994;2023-07-20T01:47:39;104.25;;;4.97;;
59127;SDS011;44912;52.754;5.994;2023-07-20T01:50:05;245.73;;;10.02;;
59127;SDS011;44912;52.754;5.994;2023-07-20T01:52:31;187.57;;;6.90;;
59127;SDS011;44912;52.754;5.994;2023-07-20T01:54:57;347.23;;;12.65;;
59127;SDS011;44912;52.754;5.994;2023-07-20T01:57:23;260.77;;;9.95;;
59127;SDS011;44912;52.754;5.994;2023-07-20T01:59:48;220.20;;;9.05;;
59127;SDS011;44912;52.754;5.994;2023-07-20T02:02:14;243.82;;;9.55;;
59127;SDS011;44912;52.754;5.994;2023-07-20T02:04:39;224.50;;;9.63;;
59127;SDS011;44912;52.754;5.994;2023-07-20T02:07:05;244.65;;;11.15;;
59127;SDS011;44912;52.754;5.994;2023-07-20T02:09:30;191.93;;;8.77;;
59127;SDS011;44912;52.754;5.994;2023-07-20T02:11:56;163.15;;;8.25;;
59127;SDS011;44912;52.754;5.994;2023-07-20T02:14:21;94.97;;;5.28;;
59127;SDS011;44912;52.754;5.994;2023-07-20T02:16:47;42.30;;;4.32;;
59127;SDS011;44912;52.754;5.994;2023-07-20T02:19:17;28.27;;;5.10;;
59127;SDS011;44912;52.754;5.994;2023-07-20T02:21:44;12.82;;;3.20;;
59127;SDS011;44912;52.754;5.994;2023-07-20T02:24:09;6.85;;;3.13;;
59127;SDS011;44912;52.754;5.994;2023-07-20T02:26:35;7.80;;;3.20;;
59127;SDS011;44912;52.754;5.994;2023-07-20T02:29:00;184.63;;;8.07;;
59127;SDS011;44912;52.754;5.994;2023-07-20T02:31:29;138.75;;;6.22;;
59127;SDS011;44912;52.754;5.994;2023-07-20T02:33:55;188.98;;;8.93;;
59127;SDS011;44912;52.754;5.994;2023-07-20T02:36:20;131.90;;;7.63;;
59127;SDS011;44912;52.754;5.994;2023-07-20T02:38:46;170.25;;;8.65;;
59127;SDS011;44912;52.754;5.994;2023-07-20T02:41:13;91.03;;;6.80;;
59127;SDS011;44912;52.754;5.994;2023-07-20T02:43:38;32.85;;;4.63;;
59127;SDS011;44912;52.754;5.994;2023-07-20T02:46:04;57.08;;;5.07;;
59127;SDS011;44912;52.754;5.994;2023-07-20T02:48:29;156.88;;;6.97;;
59127;SDS011;44912;52.754;5.994;2023-07-20T02:50:55;360.40;;;12.93;;
59127;SDS011;44912;52.754;5.994;2023-07-20T02:53:21;309.10;;;12.10;;
59127;SDS011;44912;52.754;5.994;2023-07-20T02:55:46;119.97;;;6.78;;
59127;SDS011;44912;52.754;5.994;2023-07-20T02:58:12;38.85;;;6.07;;
59127;SDS011;44912;52.754;5.994;2023-07-20T03:00:38;24.90;;;5.53;;
59127;SDS011;44912;52.754;5.994;2023-07-20T03:03:03;12.82;;;6.30;;
59127;SDS011;44912;52.754;5.994;2023-07-20T03:05:29;15.00;;;5.80;;
59127;SDS011;44912;52.754;5.994;2023-07-20T03:07:55;28.00;;;5.50;;
59127;SDS011;44912;52.754;5.994;2023-07-20T03:10:21;113.70;;;7.72;;
59127;SDS011;44912;52.754;5.994;2023-07-20T03:12:46;59.85;;;6.22;;
59127;SDS011;44912;52.754;5.994;2023-07-20T03:15:12;171.25;;;8.32;;
59127;SDS011;44912;52.754;5.994;2023-07-20T03:17:37;78.60;;;5.07;;
59127;SDS011;44912;52.754;5.994;2023-07-20T03:20:03;300.02;;;11.18;;
59127;SDS011;44912;52.754;5.994;2023-07-20T03:22:30;308.80;;;11.73;;
59127;SDS011;44912;52.754;5.994;2023-07-20T03:24:56;301.17;;;11.70;;
59127;SDS011;44912;52.754;5.994;2023-07-20T03:27:21;448.20;;;15.57;;
59127;SDS011;44912;52.754;5.994;2023-07-20T03:29:47;87.20;;;6.40;;
59127;SDS011;44912;52.754;5.994;2023-07-20T03:32:12;28.23;;;4.28;;
59127;SDS011;44912;52.754;5.994;2023-07-20T03:34:38;8.85;;;4.15;;
59127;SDS011;44912;52.754;5.994;2023-07-20T03:37:03;8.02;;;4.55;;
59127;SDS011;44912;52.754;5.994;2023-07-20T03:39:30;8.07;;;5.07;;
59127;SDS011;44912;52.754;5.994;2023-07-20T03:41:55;5.65;;;3.05;;
59127;SDS011;44912;52.754;5.994;2023-07-20T03:44:22;7.43;;;3.13;;
59127;SDS011;44912;52.754;5.994;2023-07-20T03:46:47;38.08;;;3.60;;
59127;SDS011;44912;52.754;5.994;2023-07-20T03:49:13;52.90;;;4.03;;
59127;SDS011;44912;52.754;5.994;2023-07-20T03:51:38;18.45;;;3.25;;
59127;SDS011;44912;52.754;5.994;2023-07-20T03:54:04;51.95;;;4.20;;
59127;SDS011;44912;52.754;5.994;2023-07-20T03:56:30;147.07;;;6.03;;
59127;SDS011;44912;52.754;5.994;2023-07-20T03:58:59;68.20;;;3.33;;
59127;SDS011;44912;52.754;5.994;2023-07-20T04:01:24;139.18;;;5.53;;
59127;SDS011;44912;52.754;5.994;2023-07-20T04:03:50;85.07;;;4.05;;
59127;SDS011;44912;52.754;5.994;2023-07-20T04:06:16;67.80;;;2.83;;
59127;SDS011;44912;52.754;5.994;2023-07-20T04:08:42;30.13;;;2.47;;
59127;SDS011;44912;52.754;5.994;2023-07-20T04:11:08;27.38;;;3.03;;
59127;SDS011;44912;52.754;5.994;2023-07-20T04:13:33;337.05;;;11.48;;
59127;SDS011;44912;52.754;5.994;2023-07-20T04:15:59;171.10;;;6.80;;
59127;SDS011;44912;52.754;5.994;2023-07-20T04:18:25;161.77;;;6.70;;
59127;SDS011;44912;52.754;5.994;2023-07-20T04:20:50;125.32;;;5.50;;
59127;SDS011;44912;52.754;5.994;2023-07-20T04:23:16;160.63;;;5.88;;
59127;SDS011;44912;52.754;5.994;2023-07-20T04:25:42;99.43;;;4.28;;
59127;SDS011;44912;52.754;5.994;2023-07-20T04:28:07;102.03;;;5.30;;
59127;SDS011;44912;52.754;5.994;2023-07-20T04:30:36;10.35;;;4.53;;
59127;SDS011;44912;52.754;5.994;2023-07-20T04:33:02;7.45;;;4.80;;
59127;SDS011;44912;52.754;5.994;2023-07-20T04:38:12;7.82;;;4.93;;
59127;SDS011;44912;52.754;5.994;2023-07-20T04:40:37;8.55;;;5.68;;
59127;SDS011;44912;52.754;5.994;2023-07-20T04:43:03;9.38;;;5.78;;
59127;SDS011;44912;52.754;5.994;2023-07-20T04:45:28;7.95;;;5.18;;
59127;SDS011;44912;52.754;5.994;2023-07-20T04:47:54;8.93;;;5.15;;
59127;SDS011;44912;52.754;5.994;2023-07-20T04:50:20;8.75;;;6.45;;
59127;SDS011;44912;52.754;5.994;2023-07-20T04:52:46;8.02;;;5.85;;
59127;SDS011;44912;52.754;5.994;2023-07-20T04:55:11;9.05;;;6.85;;
59127;SDS011;44912;52.754;5.994;2023-07-20T04:57:37;10.50;;;7.15;;
59127;SDS011;44912;52.754;5.994;2023-07-20T05:00:02;9.32;;;7.22;;
59127;SDS011;44912;52.754;5.994;2023-07-20T05:02:28;9.63;;;6.70;;
59127;SDS011;44912;52.754;5.994;2023-07-20T05:04:54;10.95;;;6.85;;
59127;SDS011;44912;52.754;5.994;2023-07-20T05:07:19;9.57;;;6.95;;
59127;SDS011;44912;52.754;5.994;2023-07-20T05:09:45;10.18;;;7.00;;
59127;SDS011;44912;52.754;5.994;2023-07-20T05:12:10;10.20;;;7.80;;
59127;SDS011;44912;52.754;5.994;2023-07-20T05:14:37;9.75;;;7.25;;
59127;SDS011;44912;52.754;5.994;2023-07-20T05:17:03;10.70;;;7.13;;
59127;SDS011;44912;52.754;5.994;2023-07-20T05:19:29;9.55;;;7.10;;
59127;SDS011;44912;52.754;5.994;2023-07-20T05:21:54;10.30;;;7.22;;
59127;SDS011;44912;52.754;5.994;2023-07-20T05:24:20;10.70;;;6.93;;
59127;SDS011;44912;52.754;5.994;2023-07-20T05:26:45;9.80;;;7.20;;
59127;SDS011;44912;52.754;5.994;2023-07-20T05:29:11;9.32;;;6.15;;
59127;SDS011;44912;52.754;5.994;2023-07-20T05:31:36;9.20;;;6.07;;
59127;SDS011;44912;52.754;5.994;2023-07-20T05:34:02;9.15;;;6.80;;
59127;SDS011;44912;52.754;5.994;2023-07-20T05:36:27;8.00;;;6.20;;
59127;SDS011;44912;52.754;5.994;2023-07-20T05:38:53;7.82;;;5.97;;
59127;SDS011;44912;52.754;5.994;2023-07-20T05:41:19;9.00;;;6.28;;
59127;SDS011;44912;52.754;5.994;2023-07-20T05:43:44;9.10;;;5.95;;
59127;SDS011;44912;52.754;5.994;2023-07-20T05:46:09;8.57;;;6.00;;
59127;SDS011;44912;52.754;5.994;2023-07-20T05:48:35;9.15;;;5.78;;
59127;SDS011;44912;52.754;5.994;2023-07-20T05:51:01;7.50;;;5.25;;
59127;SDS011;44912;52.754;5.994;2023-07-20T05:53:26;8.90;;;5.07;;
59127;SDS011;44912;52.754;5.994;2023-07-20T05:55:55;6.82;;;4.20;;
59127;SDS011;44912;52.754;5.994;2023-07-20T05:58:20;5.53;;;3.50;;
59127;SDS011;44912;52.754;5.994;2023-07-20T06:00:49;5.20;;;3.30;;
59127;SDS011;44912;52.754;5.994;2023-07-20T06:03:15;7.07;;;3.65;;
59127;SDS011;44912;52.754;5.994;2023-07-20T06:05:41;5.65;;;2.92;;
59127;SDS011;44912;52.754;5.994;2023-07-20T06:08:08;5.80;;;3.03;;
59127;SDS011;44912;52.754;5.994;2023-07-20T06:10:33;5.85;;;2.80;;
59127;SDS011;44912;52.754;5.994;2023-07-20T06:12:59;4.82;;;2.50;;
59127;SDS011;44912;52.754;5.994;2023-07-20T06:15:26;3.97;;;2.10;;
59127;SDS011;44912;52.754;5.994;2023-07-20T06:17:53;5.00;;;2.20;;
59127;SDS011;44912;52.754;5.994;2023-07-20T06:20:20;3.75;;;2.15;;
59127;SDS011;44912;52.754;5.994;2023-07-20T06:22:46;5.47;;;1.98;;
59127;SDS011;44912;52.754;5.994;2023-07-20T06:25:12;4.97;;;2.30;;
59127;SDS011;44912;52.754;5.994;2023-07-20T06:27:38;2.88;;;1.92;;
59127;SDS011;44912;52.754;5.994;2023-07-20T06:30:04;3.85;;;2.25;;
59127;SDS011;44912;52.754;5.994;2023-07-20T06:32:30;5.53;;;2.92;;
59127;SDS011;44912;52.754;5.994;2023-07-20T06:34:55;3.70;;;1.83;;
59127;SDS011;44912;52.754;5.994;2023-07-20T06:37:21;3.45;;;1.55;;
59127;SDS011;44912;52.754;5.994;2023-07-20T06:39:46;1.45;;;1.10;;
59127;SDS011;44912;52.754;5.994;2023-07-20T06:42:12;2.95;;;1.30;;
59127;SDS011;44912;52.754;5.994;2023-07-20T06:44:37;5.70;;;1.80;;
59127;SDS011;44912;52.754;5.994;2023-07-20T06:47:04;2.92;;;1.45;;
59127;SDS011;44912;52.754;5.994;2023-07-20T06:49:29;2.30;;;1.38;;
59127;SDS011;44912;52.754;5.994;2023-07-20T06:51:55;4.43;;;1.45;;
59127;SDS011;44912;52.754;5.994;2023-07-20T06:54:21;3.60;;;1.30;;
59127;SDS011;44912;52.754;5.994;2023-07-20T06:56:47;2.88;;;1.58;;
59127;SDS011;44912;52.754;5.994;2023-07-20T06:59:13;5.88;;;2.17;;
59127;SDS011;44912;52.754;5.994;2023-07-20T07:01:38;4.30;;;1.40;;
59127;SDS011;44912;52.754;5.994;2023-07-20T07:04:04;2.78;;;1.15;;
59127;SDS011;44912;52.754;5.994;2023-07-20T07:06:30;5.05;;;1.27;;
59127;SDS011;44912;52.754;5.994;2023-07-20T07:08:56;2.03;;;1.00;;
59127;SDS011;44912;52.754;5.994;2023-07-20T07:11:22;2.60;;;1.15;;
59127;SDS011;44912;52.754;5.994;2023-07-20T07:13:48;4.28;;;1.33;;
59127;SDS011;44912;52.754;5.994;2023-07-20T07:16:16;2.45;;;1.20;;
59127;SDS011;44912;52.754;5.994;2023-07-20T07:18:44;2.70;;;1.10;;
59127;SDS011;44912;52.754;5.994;2023-07-20T07:21:11;3.90;;;1.20;;
59127;SDS011;44912;52.754;5.994;2023-07-20T07:23:37;3.65;;;1.40;;
59127;SDS011;44912;52.754;5.994;2023-07-20T07:26:03;5.10;;;1.50;;
59127;SDS011;44912;52.754;5.994;2023-07-20T07:28:29;4.10;;;1.25;;
59127;SDS011;44912;52.754;5.994;2023-07-20T07:30:55;3.00;;;1.30;;
59127;SDS011;44912;52.754;5.994;2023-07-20T07:33:22;2.20;;;1.40;;
59127;SDS011;44912;52.754;5.994;2023-07-20T07:35:47;2.72;;;1.60;;
59127;SDS011;44912;52.754;5.994;2023-07-20T07:38:14;4.20;;;1.52;;
59127;SDS011;44912;52.754;5.994;2023-07-20T07:40:39;4.20;;;1.90;;
59127;SDS011;44912;52.754;5.994;2023-07-20T07:43:05;4.43;;;1.80;;
59127;SDS011;44912;52.754;5.994;2023-07-20T07:45:31;5.32;;;2.00;;
59127;SDS011;44912;52.754;5.994;2023-07-20T07:48:00;4.00;;;1.58;;
59127;SDS011;44912;52.754;5.994;2023-07-20T07:50:27;3.55;;;1.40;;
59127;SDS011;44912;52.754;5.994;2023-07-20T07:52:53;5.28;;;1.20;;
59127;SDS011;44912;52.754;5.994;2023-07-20T07:55:19;4.22;;;1.20;;
59127;SDS011;44912;52.754;5.994;2023-07-20T07:57:44;3.42;;;1.13;;
59127;SDS011;44912;52.754;5.994;2023-07-20T08:00:12;2.10;;;0.80;;
59127;SDS011;44912;52.754;5.994;2023-07-20T08:02:40;2.28;;;0.80;;
59127;SDS011;44912;52.754;5.994;2023-07-20T08:05:07;1.35;;;0.77;;
59127;SDS011;44912;52.754;5.994;2023-07-20T08:07:32;1.63;;;0.75;;
59127;SDS011;44912;52.754;5.994;2023-07-20T08:09:58;0.75;;;0.73;;
59127;SDS011;44912;52.754;5.994;2023-07-20T08:12:25;2.03;;;0.80;;
59127;SDS011;44912;52.754;5.994;2023-07-20T08:14:51;3.10;;;0.80;;
59127;SDS011;44912;52.754;5.994;2023-07-20T08:17:16;2.78;;;1.00;;
59127;SDS011;44912;52.754;5.994;2023-07-20T08:19:42;2.92;;;1.00;;
59127;SDS011;44912;52.754;5.994;2023-07-20T08:22:09;3.30;;;1.08;;
59127;SDS011;44912;52.754;5.994;2023-07-20T08:24:38;4.25;;;1.05;;
59127;SDS011;44912;52.754;5.994;2023-07-20T08:27:08;4.57;;;1.00;;
59127;SDS011;44912;52.754;5.994;2023-07-20T08:29:34;1.80;;;0.90;;
59127;SDS011;44912;52.754;5.994;2023-07-20T08:32:01;1.38;;;0.90;;
59127;SDS011;44912;52.754;5.994;2023-07-20T08:34:27;2.22;;;0.98;;
59127;SDS011;44912;52.754;5.994;2023-07-20T08:36:52;2.70;;;0.82;;
59127;SDS011;44912;52.754;5.994;2023-07-20T08:39:18;2.25;;;1.00;;
59127;SDS011;44912;52.754;5.994;2023-07-20T08:41:44;2.50;;;1.10;;
59127;SDS011;44912;52.754;5.994;2023-07-20T08:44:10;3.83;;;0.93;;
59127;SDS011;44912;52.754;5.994;2023-07-20T08:46:36;3.10;;;0.98;;
59127;SDS011;44912;52.754;5.994;2023-07-20T08:49:03;1.55;;;1.00;;
59127;SDS011;44912;52.754;5.994;2023-07-20T08:51:30;3.70;;;1.00;;
59127;SDS011;44912;52.754;5.994;2023-07-20T08:53:56;4.28;;;1.08;;
59127;SDS011;44912;52.754;5.994;2023-07-20T08:56:23;5.60;;;1.35;;
59127;SDS011;44912;52.754;5.994;2023-07-20T08:58:51;2.80;;;1.08;;
59127;SDS011;44912;52.754;5.994;2023-07-20T09:01:19;3.03;;;1.00;;
59127;SDS011;44912;52.754;5.994;2023-07-20T09:03:45;4.07;;;1.05;;
59127;SDS011;44912;52.754;5.994;2023-07-20T09:06:11;3.55;;;1.10;;
59127;SDS011;44912;52.754;5.994;2023-07-20T09:08:38;3.05;;;1.17;;
59127;SDS011;44912;52.754;5.994;2023-07-20T09:11:04;4.00;;;1.17;;
59127;SDS011;44912;52.754;5.994;2023-07-20T09:13:31;3.65;;;1.20;;
59127;SDS011;44912;52.754;5.994;2023-07-20T09:15:58;4.38;;;0.93;;
59127;SDS011;44912;52.754;5.994;2023-07-20T09:18:24;2.60;;;0.90;;
59127;SDS011;44912;52.754;5.994;2023-07-20T09:20:50;1.63;;;0.90;;
59127;SDS011;44912;52.754;5.994;2023-07-20T09:23:16;2.50;;;1.00;;
59127;SDS011;44912;52.754;5.994;2023-07-20T09:25:41;3.53;;;0.90;;
59127;SDS011;44912;52.754;5.994;2023-07-20T09:28:07;2.17;;;1.10;;
59127;SDS011;44912;52.754;5.994;2023-07-20T09:30:33;4.13;;;1.27;;
59127;SDS011;44912;52.754;5.994;2023-07-20T09:32:58;4.53;;;1.20;;
59127;SDS011;44912;52.754;5.994;2023-07-20T09:35:24;3.97;;;1.20;;
59127;SDS011;44912;52.754;5.994;2023-07-20T09:38:00;3.58;;;1.23;;
59127;SDS011;44912;52.754;5.994;2023-07-20T09:40:26;2.83;;;1.25;;
59127;SDS011;44912;52.754;5.994;2023-07-20T09:42:53;5.40;;;1.50;;
59127;SDS011;44912;52.754;5.994;2023-07-20T09:48:23;2.63;;;1.00;;
59127;SDS011;44912;52.754;5.994;2023-07-20T09:50:49;3.65;;;1.35;;
59127;SDS011;44912;52.754;5.994;2023-07-20T09:53:16;3.45;;;1.40;;
59127;SDS011;44912;52.754;5.994;2023-07-20T09:55:43;3.58;;;1.52;;
59127;SDS011;44912;52.754;5.994;2023-07-20T09:58:10;6.07;;;1.70;;
59127;SDS011;44912;52.754;5.994;2023-07-20T10:00:36;5.90;;;1.83;;
59127;SDS011;44912;52.754;5.994;2023-07-20T10:03:03;4.03;;;1.30;;
59127;SDS011;44912;52.754;5.994;2023-07-20T10:05:33;3.95;;;1.60;;
59127;SDS011;44912;52.754;5.994;2023-07-20T10:08:01;4.30;;;1.70;;
59127;SDS011;44912;52.754;5.994;2023-07-20T10:10:29;2.58;;;1.30;;
59127;SDS011;44912;52.754;5.994;2023-07-20T10:12:58;5.63;;;1.65;;
59127;SDS011;44912;52.754;5.994;2023-07-20T10:15:36;4.18;;;1.50;;
59127;SDS011;44912;52.754;5.994;2023-07-20T10:21:15;3.38;;;1.00;;
59127;SDS011;44912;52.754;5.994;2023-07-20T10:23:44;3.70;;;1.17;;
59127;SDS011;44912;52.754;5.994;2023-07-20T10:26:10;2.92;;;1.40;;
59127;SDS011;44912;52.754;5.994;2023-07-20T10:28:36;4.50;;;1.02;;
59127;SDS011;44912;52.754;5.994;2023-07-20T10:31:04;3.65;;;1.10;;
59127;SDS011;44912;52.754;5.994;2023-07-20T10:33:30;3.22;;;1.10;;
59127;SDS011;44912;52.754;5.994;2023-07-20T10:35:57;3.58;;;1.17;;
59127;SDS011;44912;52.754;5.994;2023-07-20T10:38:42;3.58;;;1.55;;
59127;SDS011;44912;52.754;5.994;2023-07-20T10:41:23;2.75;;;0.95;;
59127;SDS011;44912;52.754;5.994;2023-07-20T10:44:09;3.88;;;1.40;;
59127;SDS011;44912;52.754;5.994;2023-07-20T10:49:04;1.63;;;1.05;;
59127;SDS011;44912;52.754;5.994;2023-07-20T10:51:47;4.80;;;1.25;;
59127;SDS011;44912;52.754;5.994;2023-07-20T10:56:42;2.13;;;1.13;;
59127;SDS011;44912;52.754;5.994;2023-07-20T10:59:36;2.85;;;1.40;;
59127;SDS011;44912;52.754;5.994;2023-07-20T11:02:07;3.78;;;1.73;;
59127;SDS011;44912;52.754;5.994;2023-07-20T11:04:43;3.20;;;1.30;;
59127;SDS011;44912;52.754;5.994;2023-07-20T11:07:10;2.80;;;1.30;;
59127;SDS011;44912;52.754;5.994;2023-07-20T11:09:39;4.65;;;1.60;;
59127;SDS011;44912;52.754;5.994;2023-07-20T11:14:35;3.47;;;1.40;;
59127;SDS011;44912;52.754;5.994;2023-07-20T11:17:10;3.35;;;1.42;;
59127;SDS011;44912;52.754;5.994;2023-07-20T11:19:40;3.20;;;1.40;;
59127;SDS011;44912;52.754;5.994;2023-07-20T11:22:06;4.72;;;1.65;;
59127;SDS011;44912;52.754;5.994;2023-07-20T11:24:33;4.22;;;1.48;;
59127;SDS011;44912;52.754;5.994;2023-07-20T11:26:58;2.92;;;1.30;;
59127;SDS011;44912;52.754;5.994;2023-07-20T11:29:25;2.90;;;1.40;;
59127;SDS011;44912;52.754;5.994;2023-07-20T11:31:51;3.63;;;1.45;;
59127;SDS011;44912;52.754;5.994;2023-07-20T11:34:17;4.97;;;1.20;;
59127;SDS011;44912;52.754;5.994;2023-07-20T11:36:48;2.30;;;1.08;;
59127;SDS011;44912;52.754;5.994;2023-07-20T11:39:16;4.30;;;1.23;;
59127;SDS011;44912;52.754;5.994;2023-07-20T11:41:56;1.48;;;1.00;;
59127;SDS011;44912;52.754;5.994;2023-07-20T11:44:23;2.78;;;1.30;;
59127;SDS011;44912;52.754;5.994;2023-07-20T11:47:12;2.80;;;1.00;;
59127;SDS011;44912;52.754;5.994;2023-07-20T11:49:42;1.67;;;0.70;;
59127;SDS011;44912;52.754;5.994;2023-07-20T11:52:09;2.85;;;1.10;;
59127;SDS011;44912;52.754;5.994;2023-07-20T11:54:37;3.63;;;1.20;;
59127;SDS011;44912;52.754;5.994;2023-07-20T11:57:05;2.00;;;0.77;;
59127;SDS011;44912;52.754;5.994;2023-07-20T11:59:31;2.00;;;0.90;;
59127;SDS011;44912;52.754;5.994;2023-07-20T12:01:58;1.95;;;0.80;;
59127;SDS011;44912;52.754;5.994;2023-07-20T12:04:28;4.45;;;1.20;;
59127;SDS011;44912;52.754;5.994;2023-07-20T12:06:54;2.28;;;0.80;;
59127;SDS011;44912;52.754;5.994;2023-07-20T12:09:20;1.60;;;0.70;;
59127;SDS011;44912;52.754;5.994;2023-07-20T12:11:48;2.35;;;0.70;;
59127;SDS011;44912;52.754;5.994;2023-07-20T12:14:14;1.90;;;0.82;;
59127;SDS011;44912;52.754;5.994;2023-07-20T12:16:40;2.72;;;0.82;;
59127;SDS011;44912;52.754;5.994;2023-07-20T12:19:07;2.50;;;0.82;;
59127;SDS011;44912;52.754;5.994;2023-07-20T12:21:35;2.17;;;0.90;;
59127;SDS011;44912;52.754;5.994;2023-07-20T12:24:02;1.77;;;0.77;;
59127;SDS011;44912;52.754;5.994;2023-07-20T12:26:28;1.48;;;0.75;;
59127;SDS011;44912;52.754;5.994;2023-07-20T12:28:54;1.92;;;0.80;;
59127;SDS011;44912;52.754;5.994;2023-07-20T12:31:20;2.45;;;0.90;;
59127;SDS011;44912;52.754;5.994;2023-07-20T12:33:47;3.58;;;0.73;;
59127;SDS011;44912;52.754;5.994;2023-07-20T12:36:14;2.15;;;0.80;;
59127;SDS011;44912;52.754;5.994;2023-07-20T12:38:39;1.42;;;0.70;;
59127;SDS011;44912;52.754;5.994;2023-07-20T12:41:06;2.10;;;1.25;;
59127;SDS011;44912;52.754;5.994;2023-07-20T12:43:32;1.88;;;0.90;;
59127;SDS011;44912;52.754;5.994;2023-07-20T12:45:59;2.33;;;0.98;;
59127;SDS011;44912;52.754;5.994;2023-07-20T12:48:24;3.90;;;0.80;;
59127;SDS011;44912;52.754;5.994;2023-07-20T12:50:50;1.85;;;1.00;;
59127;SDS011;44912;52.754;5.994;2023-07-20T12:53:16;1.30;;;0.77;;
59127;SDS011;44912;52.754;5.994;2023-07-20T12:55:41;1.67;;;0.80;;
59127;SDS011;44912;52.754;5.994;2023-07-20T12:58:07;2.97;;;0.95;;
59127;SDS011;44912;52.754;5.994;2023-07-20T13:00:33;1.73;;;0.88;;
59127;SDS011;44912;52.754;5.994;2023-07-20T13:02:59;2.35;;;0.93;;
59127;SDS011;44912;52.754;5.994;2023-07-20T13:05:24;2.38;;;0.95;;
59127;SDS011;44912;52.754;5.994;2023-07-20T13:07:50;1.77;;;1.00;;
59127;SDS011;44912;52.754;5.994;2023-07-20T13:10:16;2.17;;;0.80;;
59127;SDS011;44912;52.754;5.994;2023-07-20T13:12:41;2.53;;;0.88;;
59127;SDS011;44912;52.754;5.994;2023-07-20T13:15:07;2.05;;;0.95;;
59127;SDS011;44912;52.754;5.994;2023-07-20T13:17:38;1.92;;;0.75;;
59127;SDS011;44912;52.754;5.994;2023-07-20T13:20:04;1.30;;;0.77;;
59127;SDS011;44912;52.754;5.994;2023-07-20T13:22:32;3.13;;;0.93;;
59127;SDS011;44912;52.754;5.994;2023-07-20T13:24:59;3.20;;;0.90;;
59127;SDS011;44912;52.754;5.994;2023-07-20T13:27:24;2.53;;;0.63;;
59127;SDS011;44912;52.754;5.994;2023-07-20T13:29:53;2.20;;;0.80;;
59127;SDS011;44912;52.754;5.994;2023-07-20T13:32:19;2.17;;;0.90;;
59127;SDS011;44912;52.754;5.994;2023-07-20T13:34:45;1.58;;;0.60;;
59127;SDS011;44912;52.754;5.994;2023-07-20T13:37:11;0.55;;;0.45;;
59127;SDS011;44912;52.754;5.994;2023-07-20T13:39:37;2.85;;;0.80;;
59127;SDS011;44912;52.754;5.994;2023-07-20T13:42:03;2.45;;;0.70;;
59127;SDS011;44912;52.754;5.994;2023-07-20T13:44:33;2.60;;;0.73;;
59127;SDS011;44912;52.754;5.994;2023-07-20T13:47:00;2.38;;;0.80;;
59127;SDS011;44912;52.754;5.994;2023-07-20T13:49:26;1.85;;;0.70;;
59127;SDS011;44912;52.754;5.994;2023-07-20T13:51:53;1.83;;;0.80;;
59127;SDS011;44912;52.754;5.994;2023-07-20T13:54:19;1.25;;;0.70;;
59127;SDS011;44912;52.754;5.994;2023-07-20T13:56:44;1.30;;;0.80;;
59127;SDS011;44912;52.754;5.994;2023-07-20T13:59:10;0.82;;;0.65;;
59127;SDS011;44912;52.754;5.994;2023-07-20T14:01:35;1.35;;;0.68;;
59127;SDS011;44912;52.754;5.994;2023-07-20T14:04:02;1.98;;;0.80;;
59127;SDS011;44912;52.754;5.994;2023-07-20T14:06:29;2.58;;;0.82;;
59127;SDS011;44912;52.754;5.994;2023-07-20T14:08:55;1.15;;;0.80;;
59127;SDS011;44912;52.754;5.994;2023-07-20T14:11:22;1.75;;;0.80;;
59127;SDS011;44912;52.754;5.994;2023-07-20T14:13:48;2.03;;;0.85;;
59127;SDS011;44912;52.754;5.994;2023-07-20T14:16:23;0.95;;;0.70;;
59127;SDS011;44912;52.754;5.994;2023-07-20T14:18:49;1.77;;;0.80;;
59127;SDS011;44912;52.754;5.994;2023-07-20T14:21:20;1.40;;;0.70;;
59127;SDS011;44912;52.754;5.994;2023-07-20T14:23:50;2.17;;;0.73;;
59127;SDS011;44912;52.754;5.994;2023-07-20T14:26:16;1.63;;;0.80;;
59127;SDS011;44912;52.754;5.994;2023-07-20T14:28:42;1.25;;;0.88;;
59127;SDS011;44912;52.754;5.994;2023-07-20T14:31:07;2.30;;;0.80;;
59127;SDS011;44912;52.754;5.994;2023-07-20T14:33:33;1.10;;;0.80;;
59127;SDS011;44912;52.754;5.994;2023-07-20T14:35:59;2.58;;;0.70;;
59127;SDS011;44912;52.754;5.994;2023-07-20T14:38:26;1.88;;;0.90;;
59127;SDS011;44912;52.754;5.994;2023-07-20T14:40:53;4.20;;;0.90;;
59127;SDS011;44912;52.754;5.994;2023-07-20T14:43:19;1.92;;;0.77;;
59127;SDS011;44912;52.754;5.994;2023-07-20T14:45:44;3.03;;;1.10;;
59127;SDS011;44912;52.754;5.994;2023-07-20T14:48:10;2.50;;;1.00;;
59127;SDS011;44912;52.754;5.994;2023-07-20T14:50:36;3.08;;;1.00;;
59127;SDS011;44912;52.754;5.994;2023-07-20T14:53:01;1.63;;;0.70;;
59127;SDS011;44912;52.754;5.994;2023-07-20T14:55:28;3.35;;;1.08;;
59127;SDS011;44912;52.754;5.994;2023-07-20T14:57:53;1.60;;;0.70;;
59127;SDS011;44912;52.754;5.994;2023-07-20T15:00:19;1.60;;;0.73;;
59127;SDS011;44912;52.754;5.994;2023-07-20T15:02:45;2.25;;;0.70;;
59127;SDS011;44912;52.754;5.994;2023-07-20T15:05:10;1.80;;;0.88;;
59127;SDS011;44912;52.754;5.994;2023-07-20T15:07:36;2.85;;;0.70;;